createdAt,value
2023-01-17T00:02:08.794Z,0.49
2023-01-17T00:04:54.182Z,0.28
2023-01-17T00:07:41.070Z,0.17
2023-01-17T00:10:11.479Z,0.13
2023-01-17T00:12:39.566Z,0.12
2023-01-17T00:15:07.281Z,-0.02
2023-01-17T00:17:34.111Z,0.14
2023-01-17T00:20:20.307Z,0.54
2023-01-17T00:23:05.904Z,0.34
2023-01-17T00:25:57.368Z,0.33
2023-01-17T00:28:24.511Z,0.47
2023-01-17T00:30:51.207Z,0.51
2023-01-17T00:33:18.245Z,0.43
2023-01-17T00:35:45.176Z,0.53
2023-01-17T00:38:17.787Z,0.03
2023-01-17T00:40:45.767Z,0.20
2023-01-17T00:43:33.332Z,0.54
2023-01-17T00:46:18.754Z,0.21
2023-01-17T00:49:04.592Z,0.56
2023-01-17T00:51:51.949Z,0.56
2023-01-17T00:54:37.902Z,0.64
2023-01-17T00:57:24.293Z,0.17
2023-01-17T01:00:09.692Z,0.65
2023-01-17T01:02:56.125Z,0.14
2023-01-17T01:05:41.903Z,0.36
2023-01-17T01:08:46.143Z,0.50
2023-01-17T01:11:37.645Z,0.20
2023-01-17T01:14:24.635Z,0.20
2023-01-17T01:17:09.976Z,0.41
2023-01-17T01:19:55.336Z,0.73
2023-01-17T01:22:40.712Z,0.07
2023-01-17T01:25:26.602Z,0.13
2023-01-17T01:28:11.945Z,0.25
2023-01-17T01:30:57.438Z,0.43
2023-01-17T01:33:24.203Z,0.56
2023-01-17T01:35:55.838Z,-0.23
2023-01-17T01:38:25.223Z,0.45
2023-01-17T01:40:55.044Z,0.53
2023-01-17T01:43:40.637Z,0.55
2023-01-17T01:46:09.232Z,0.51
2023-01-17T01:48:43.998Z,-0.20
2023-01-17T01:51:16.447Z,0.41
2023-01-17T01:53:46.871Z,0.28
2023-01-17T01:56:15.347Z,0.64
2023-01-17T01:58:46.706Z,0.56
2023-01-17T02:01:14.939Z,0.65
2023-01-17T02:03:42.436Z,0.53
2023-01-17T02:06:35.196Z,0.56
2023-01-17T02:09:07.548Z,0.41
2023-01-17T02:11:37.369Z,0.58
2023-01-17T02:14:04.437Z,0.42
2023-01-17T02:17:02.180Z,-0.13
2023-01-17T02:19:56.792Z,0.69
2023-01-17T02:22:44.637Z,0.72
2023-01-17T02:25:14.237Z,0.72
2023-01-17T02:27:52.817Z,0.50
2023-01-17T02:30:41.779Z,0.79
2023-01-17T02:33:27.193Z,0.83
2023-01-17T02:36:26.084Z,0.82
2023-01-17T02:39:04.750Z,0.28
2023-01-17T02:41:36.962Z,0.81
2023-01-17T02:44:04.380Z,0.81
2023-01-17T02:46:31.426Z,0.65
2023-01-17T02:48:58.707Z,0.77
2023-01-17T02:51:49.094Z,0.79
2023-01-17T02:54:15.926Z,0.81
2023-01-17T02:57:30.723Z,0.02
2023-01-17T03:00:38.154Z,0.39
2023-01-17T03:03:04.891Z,0.79
2023-01-17T03:05:48.584Z,0.81
2023-01-17T03:08:16.104Z,0.39
2023-01-17T03:10:44.312Z,0.85
2023-01-17T03:13:11.283Z,0.71
2023-01-17T03:15:40.008Z,0.72
2023-01-17T03:18:12.603Z,0.76
2023-01-17T03:20:39.478Z,0.86
2023-01-17T03:23:06.301Z,0.73
2023-01-17T03:25:33.457Z,0.87
2023-01-17T03:28:00.247Z,0.93
2023-01-17T03:30:27.132Z,0.84
2023-01-17T03:32:53.968Z,0.95
2023-01-17T03:35:20.826Z,0.59
2023-01-17T03:37:47.570Z,0.68
2023-01-17T03:40:14.394Z,0.55
2023-01-17T03:42:41.197Z,0.81
2023-01-17T03:45:08.572Z,0.85
2023-01-17T03:47:36.277Z,0.73
2023-01-17T03:50:03.835Z,0.43
2023-01-17T03:52:30.710Z,0.76
2023-01-17T03:54:57.462Z,0.92
2023-01-17T03:57:24.430Z,0.26
2023-01-17T03:59:51.386Z,0.73
2023-01-17T04:02:18.574Z,0.98
2023-01-17T04:04:48.218Z,0.69
2023-01-17T04:07:14.989Z,0.68
2023-01-17T04:09:41.715Z,0.74
2023-01-17T04:12:09.486Z,0.97
2023-01-17T04:14:36.321Z,1.01
2023-01-17T04:17:04.174Z,1.03
2023-01-17T04:19:33.994Z,0.89
2023-01-17T04:22:00.773Z,1.16
2023-01-17T04:24:27.499Z,0.69
2023-01-17T04:26:54.301Z,0.62
2023-01-17T04:29:21.126Z,0.94
2023-01-17T04:31:48.732Z,0.42
2023-01-17T04:34:15.532Z,0.60
2023-01-17T04:36:42.237Z,0.64
2023-01-17T04:39:09.757Z,1.09
2023-01-17T04:41:37.896Z,0.64
2023-01-17T04:44:05.282Z,1.14
2023-01-17T04:46:32.285Z,1.11
2023-01-17T04:49:00.592Z,1.36
2023-01-17T04:51:27.293Z,1.10
2023-01-17T04:53:54.059Z,1.39
2023-01-17T04:56:21.292Z,1.04
2023-01-17T04:58:51.339Z,1.37
2023-01-17T05:01:19.453Z,1.53
2023-01-17T05:03:47.742Z,1.50
2023-01-17T05:06:15.162Z,1.41
2023-01-17T05:08:48.168Z,1.54
2023-01-17T05:11:15.572Z,1.55
2023-01-17T05:13:42.393Z,1.11
2023-01-17T05:16:09.258Z,1.42
2023-01-17T05:18:36.130Z,0.82
2023-01-17T05:21:04.274Z,1.51
2023-01-17T05:23:31.307Z,1.25
2023-01-17T05:25:58.064Z,1.44
2023-01-17T05:28:25.564Z,0.57
2023-01-17T05:30:52.601Z,0.73
2023-01-17T05:33:19.560Z,1.69
2023-01-17T05:35:46.395Z,1.73
2023-01-17T05:38:13.261Z,1.76
2023-01-17T05:40:40.037Z,1.70
2023-01-17T05:43:07.262Z,1.24
2023-01-17T05:45:34.659Z,1.82
2023-01-17T05:48:02.371Z,1.55
2023-01-17T05:50:32.662Z,1.48
2023-01-17T05:53:06.798Z,1.96
2023-01-17T05:55:34.816Z,1.65
2023-01-17T05:58:02.444Z,1.86
2023-01-17T06:00:30.565Z,1.47
2023-01-17T06:02:59.117Z,1.63
2023-01-17T06:05:27.424Z,1.42
2023-01-17T06:07:54.826Z,1.75
2023-01-17T06:10:22.515Z,1.72
2023-01-17T06:12:49.865Z,1.80
2023-01-17T06:15:18.706Z,1.96
2023-01-17T06:17:45.528Z,1.88
2023-01-17T06:20:13.028Z,1.65
2023-01-17T06:22:39.853Z,1.99
2023-01-17T06:25:07.429Z,1.95
2023-01-17T06:27:34.367Z,2.08
2023-01-17T06:30:01.630Z,2.03
2023-01-17T06:32:28.839Z,1.93
2023-01-17T06:34:55.756Z,1.63
2023-01-17T06:37:22.617Z,2.07
2023-01-17T06:39:49.490Z,1.98
2023-01-17T06:42:16.306Z,1.97
2023-01-17T06:44:43.178Z,1.88
2023-01-17T06:47:09.954Z,1.81
2023-01-17T06:49:36.643Z,2.06
2023-01-17T06:52:03.443Z,1.93
2023-01-17T06:54:30.282Z,2.15
2023-01-17T06:56:57.277Z,1.65
2023-01-17T06:59:24.432Z,2.02
2023-01-17T07:01:51.383Z,2.20
2023-01-17T07:04:18.313Z,1.99
2023-01-17T07:06:45.023Z,2.29
2023-01-17T07:09:12.334Z,2.15
2023-01-17T07:11:39.142Z,1.92
2023-01-17T07:14:06.096Z,1.36
2023-01-17T07:16:34.188Z,2.26
2023-01-17T07:19:01.081Z,2.07
2023-01-17T07:21:27.793Z,1.84
2023-01-17T07:23:54.612Z,2.18
2023-01-17T07:26:21.331Z,1.72
2023-01-17T07:28:48.075Z,1.76
2023-01-17T07:31:14.842Z,2.20
2023-01-17T07:33:41.539Z,1.72
2023-01-17T07:36:09.394Z,2.50
2023-01-17T07:38:36.521Z,2.18
2023-01-17T07:41:03.441Z,2.46
2023-01-17T07:43:30.311Z,2.44
2023-01-17T07:45:57.603Z,2.37
2023-01-17T07:48:24.986Z,2.26
2023-01-17T07:50:54.082Z,2.16
2023-01-17T07:53:22.934Z,2.23
2023-01-17T07:55:49.794Z,2.21
2023-01-17T07:58:16.573Z,2.49
2023-01-17T08:00:44.858Z,2.08
2023-01-17T08:03:14.173Z,2.44
2023-01-17T08:05:42.731Z,2.28
2023-01-17T08:08:10.145Z,2.12
2023-01-17T08:10:36.935Z,2.45
2023-01-17T08:13:03.686Z,2.17
2023-01-17T08:15:30.652Z,2.29
2023-01-17T08:17:58.640Z,2.19
2023-01-17T08:20:27.782Z,2.23
2023-01-17T08:22:56.814Z,2.15
2023-01-17T08:25:25.133Z,2.42
2023-01-17T08:27:56.815Z,2.65
2023-01-17T08:30:24.267Z,2.63
2023-01-17T08:32:51.425Z,1.95
2023-01-17T08:35:20.200Z,2.62
2023-01-17T08:37:48.218Z,2.64
2023-01-17T08:40:20.795Z,2.20
2023-01-17T08:42:58.639Z,2.72
2023-01-17T08:45:26.255Z,2.73
2023-01-17T08:47:53.569Z,2.73
2023-01-17T08:50:20.829Z,2.43
2023-01-17T08:52:49.245Z,2.73
2023-01-17T08:55:16.891Z,2.34
2023-01-17T08:57:43.840Z,2.44
2023-01-17T09:00:11.745Z,2.57
2023-01-17T09:02:39.497Z,2.70
2023-01-17T09:05:07.074Z,2.65
2023-01-17T09:07:34.012Z,2.61
2023-01-17T09:10:00.903Z,2.52
2023-01-17T09:12:32.065Z,2.68
2023-01-17T09:14:59.745Z,2.69
2023-01-17T09:17:31.508Z,2.71
2023-01-17T09:19:59.490Z,2.51
2023-01-17T09:22:27.181Z,2.78
2023-01-17T09:24:54.193Z,2.75
2023-01-17T09:27:21.274Z,2.65
2023-01-17T09:29:48.091Z,2.50
2023-01-17T09:32:17.153Z,2.85
2023-01-17T09:34:44.414Z,2.70
2023-01-17T09:37:13.148Z,2.68
2023-01-17T09:39:40.081Z,2.92
2023-01-17T09:42:33.374Z,2.91
2023-01-17T09:45:00.277Z,2.52
2023-01-17T09:47:45.297Z,2.94
2023-01-17T09:50:24.054Z,2.94
2023-01-17T09:53:00.572Z,2.25
2023-01-17T09:55:50.073Z,2.55
2023-01-17T09:58:25.318Z,2.66
2023-01-17T10:01:08.116Z,2.91
2023-01-17T10:04:19.769Z,2.91
2023-01-17T10:07:17.861Z,2.63
2023-01-17T10:10:02.795Z,2.91
2023-01-17T10:12:39.558Z,2.58
2023-01-17T10:15:21.517Z,2.90
2023-01-17T10:18:28.801Z,2.58
2023-01-17T10:21:03.572Z,2.92
2023-01-17T10:24:13.711Z,2.88
2023-01-17T10:26:42.008Z,3.02
2023-01-17T10:29:15.216Z,2.26
2023-01-17T10:31:51.773Z,3.11
2023-01-17T10:34:37.201Z,3.04
2023-01-17T10:37:22.727Z,3.23
2023-01-17T10:39:52.044Z,3.00
2023-01-17T10:42:43.284Z,3.23
2023-01-17T10:45:25.648Z,2.73
2023-01-17T10:48:22.419Z,2.68
2023-01-17T10:51:11.481Z,2.68
2023-01-17T10:53:45.326Z,3.20
2023-01-17T10:56:14.896Z,3.14
2023-01-17T10:58:41.611Z,3.20
2023-01-17T11:01:19.752Z,2.87
2023-01-17T11:03:54.718Z,3.18
2023-01-17T11:06:26.149Z,2.85
2023-01-17T11:08:53.956Z,2.74
2023-01-17T11:11:24.571Z,3.04
2023-01-17T11:13:53.460Z,2.81
2023-01-17T11:16:33.875Z,3.05
2023-01-17T11:19:19.115Z,3.32
2023-01-17T11:22:06.488Z,3.26
2023-01-17T11:24:49.850Z,3.54
2023-01-17T11:27:56.684Z,3.46
2023-01-17T11:30:29.324Z,3.19
2023-01-17T11:33:06.264Z,3.07
2023-01-17T11:35:41.077Z,2.88
2023-01-17T11:38:21.959Z,3.32
2023-01-17T11:40:50.184Z,2.77
2023-01-17T11:43:25.650Z,3.37
2023-01-17T11:46:14.679Z,3.41
2023-01-17T11:48:41.553Z,3.05
2023-01-17T11:51:19.676Z,3.43
2023-01-17T11:53:48.367Z,2.95
2023-01-17T11:56:32.988Z,3.14
2023-01-17T11:59:29.875Z,3.50
2023-01-17T12:02:05.960Z,3.54
2023-01-17T12:04:42.688Z,3.58
2023-01-17T12:07:18.670Z,3.50
2023-01-17T12:09:57.263Z,3.21
2023-01-17T12:13:11.936Z,3.46
2023-01-17T12:15:41.427Z,3.43
2023-01-17T12:18:33.461Z,3.46
2023-01-17T12:21:09.003Z,3.50
2023-01-17T12:23:43.182Z,2.98
2023-01-17T12:26:31.171Z,3.55
2023-01-17T12:29:09.594Z,3.66
2023-01-17T12:31:49.555Z,3.54
2023-01-17T12:34:29.667Z,3.57
2023-01-17T12:37:26.824Z,3.55
2023-01-17T12:40:00.559Z,3.03
2023-01-17T12:42:35.750Z,3.53
2023-01-17T12:45:32.490Z,3.22
2023-01-17T12:48:05.910Z,3.34
2023-01-17T12:50:41.044Z,3.27
2023-01-17T12:53:19.709Z,3.26
2023-01-17T12:55:54.481Z,3.24
2023-01-17T12:58:24.959Z,3.23
2023-01-17T13:01:08.835Z,2.45
2023-01-17T13:03:43.623Z,3.04
2023-01-17T13:06:22.090Z,3.19
2023-01-17T13:08:53.036Z,3.08
2023-01-17T13:11:45.970Z,3.04
2023-01-17T13:14:12.717Z,2.90
2023-01-17T13:16:44.732Z,3.17
2023-01-17T13:19:28.920Z,3.22
2023-01-17T13:21:57.704Z,3.13
2023-01-17T13:25:00.400Z,3.15
2023-01-17T13:27:57.727Z,2.74
2023-01-17T13:30:59.433Z,3.20
2023-01-17T13:33:45.028Z,3.19
2023-01-17T13:36:37.439Z,2.84
2023-01-17T13:39:27.298Z,3.19
2023-01-17T13:42:05.651Z,2.96
2023-01-17T13:44:33.474Z,2.74
2023-01-17T13:47:27.087Z,3.25
2023-01-17T13:49:56.502Z,2.87
2023-01-17T13:52:26.255Z,3.25
2023-01-17T13:54:57.837Z,2.61
2023-01-17T13:57:29.775Z,3.32
2023-01-17T14:00:23.134Z,2.30
2023-01-17T14:02:52.920Z,3.18
2023-01-17T14:05:41.925Z,3.12
2023-01-17T14:08:18.301Z,2.58
2023-01-17T14:10:48.721Z,2.85
2023-01-17T14:13:35.503Z,3.04
2023-01-17T14:16:21.230Z,3.09
2023-01-17T14:18:49.125Z,2.81
2023-01-17T14:21:21.842Z,3.06
2023-01-17T14:23:56.174Z,3.08
2023-01-17T14:26:30.159Z,2.67
2023-01-17T14:29:05.595Z,3.07
2023-01-17T14:31:33.184Z,2.74
2023-01-17T14:34:11.953Z,2.79
2023-01-17T14:36:39.169Z,3.03
2023-01-17T14:39:21.835Z,2.86
2023-01-17T14:41:55.026Z,2.86
2023-01-17T14:44:28.607Z,3.04
2023-01-17T14:46:57.201Z,2.45
2023-01-17T14:49:26.977Z,2.55
2023-01-17T14:52:04.512Z,2.88
2023-01-17T14:54:31.513Z,3.03
2023-01-17T14:57:33.869Z,2.88
2023-01-17T15:00:20.629Z,2.93
2023-01-17T15:02:49.126Z,2.95
2023-01-17T15:05:22.630Z,3.04
2023-01-17T15:07:55.447Z,3.03
2023-01-17T15:10:27.164Z,3.00
2023-01-17T15:12:57.500Z,2.16
2023-01-17T15:15:28.351Z,3.05
2023-01-17T15:18:19.474Z,2.71
2023-01-17T15:20:52.553Z,3.09
2023-01-17T15:23:21.909Z,3.08
2023-01-17T15:25:50.284Z,2.90
2023-01-17T15:28:18.011Z,2.33
2023-01-17T15:31:10.379Z,2.20
2023-01-17T15:33:41.274Z,3.10
2023-01-17T15:36:16.439Z,2.71
2023-01-17T15:38:52.825Z,2.97
2023-01-17T15:41:23.634Z,3.06
2023-01-17T15:43:51.297Z,2.54
2023-01-17T15:46:23.764Z,2.80
2023-01-17T15:48:51.672Z,2.59
2023-01-17T15:51:33.716Z,3.22
2023-01-17T15:54:00.656Z,2.79
2023-01-17T15:56:33.071Z,3.06
2023-01-17T15:59:21.792Z,3.30
2023-01-17T16:01:57.550Z,2.59
2023-01-17T16:04:33.197Z,3.33
2023-01-17T16:07:11.265Z,2.54
2023-01-17T16:09:43.482Z,2.97
2023-01-17T16:12:10.333Z,2.91
2023-01-17T16:14:59.289Z,3.26
2023-01-17T16:17:24.043Z,3.15
2023-01-17T16:19:50.893Z,3.22
2023-01-17T16:22:17.512Z,2.96
2023-01-17T16:24:44.148Z,3.24
2023-01-17T16:27:11.022Z,2.78
2023-01-17T16:29:37.716Z,2.65
2023-01-17T16:32:08.622Z,2.59
2023-01-17T16:34:35.970Z,2.83
2023-01-17T16:37:05.943Z,2.92
2023-01-17T16:39:32.619Z,2.93
2023-01-17T16:42:02.597Z,2.82
2023-01-17T16:44:33.683Z,3.21
2023-01-17T16:47:01.779Z,3.24
2023-01-17T16:49:32.378Z,2.80
2023-01-17T16:51:59.467Z,3.27
2023-01-17T16:54:26.940Z,3.02
2023-01-17T16:56:53.791Z,2.78
2023-01-17T16:59:20.452Z,3.16
2023-01-17T17:01:48.461Z,3.10
2023-01-17T17:04:15.230Z,2.59
2023-01-17T17:06:42.018Z,2.70
2023-01-17T17:09:08.826Z,2.92
2023-01-17T17:11:35.668Z,3.27
2023-01-17T17:14:03.041Z,3.09
2023-01-17T17:16:30.253Z,3.26
2023-01-17T17:19:02.557Z,2.75
2023-01-17T17:21:30.678Z,3.26
2023-01-17T17:23:59.798Z,3.25
2023-01-17T17:26:30.962Z,3.27
2023-01-17T17:28:58.136Z,3.26
2023-01-17T17:31:25.023Z,2.95
2023-01-17T17:33:52.209Z,3.25
2023-01-17T17:36:19.026Z,2.12
2023-01-17T17:38:51.562Z,2.91
2023-01-17T17:41:27.975Z,0.85
2023-01-17T17:43:55.065Z,2.20
2023-01-17T17:46:24.022Z,2.67
2023-01-17T17:48:51.072Z,1.96
2023-01-17T17:51:30.198Z,3.08
2023-01-17T17:54:06.149Z,3.06
2023-01-17T17:56:33.643Z,3.01
2023-01-17T17:59:01.976Z,2.81
2023-01-17T18:01:28.772Z,2.83
2023-01-17T18:04:02.724Z,2.91
2023-01-17T18:06:30.109Z,2.72
2023-01-17T18:08:56.808Z,2.43
2023-01-17T18:11:26.771Z,2.86
2023-01-17T18:13:55.516Z,3.17
2023-01-17T18:16:22.364Z,3.18
2023-01-17T18:18:51.709Z,3.21
2023-01-17T18:21:27.858Z,2.59
2023-01-17T18:24:00.340Z,3.27
2023-01-17T18:26:30.856Z,3.25
2023-01-17T18:28:58.803Z,3.28
2023-01-17T18:31:27.581Z,3.33
2023-01-17T18:34:01.395Z,2.95
2023-01-17T18:36:28.832Z,2.95
2023-01-17T18:38:56.493Z,2.84
2023-01-17T18:41:26.226Z,3.07
2023-01-17T18:43:53.395Z,2.95
2023-01-17T18:46:20.618Z,3.08
2023-01-17T18:48:47.510Z,2.91
2023-01-17T18:51:16.609Z,2.45
2023-01-17T18:53:45.552Z,2.60
2023-01-17T18:56:18.526Z,3.14
2023-01-17T18:58:47.254Z,2.93
2023-01-17T19:01:15.036Z,3.21
2023-01-17T19:03:43.729Z,3.15
2023-01-17T19:06:14.620Z,2.85
2023-01-17T19:08:42.313Z,2.23
2023-01-17T19:11:10.677Z,3.03
2023-01-17T19:13:40.928Z,2.37
2023-01-17T19:16:12.763Z,3.02
2023-01-17T19:18:40.028Z,3.12
2023-01-17T19:21:19.047Z,2.82
2023-01-17T19:23:46.136Z,2.83
2023-01-17T19:26:14.536Z,3.42
2023-01-17T19:28:43.399Z,3.22
2023-01-17T19:31:22.147Z,3.43
2023-01-17T19:33:54.476Z,3.41
2023-01-17T19:36:24.476Z,3.40
2023-01-17T19:39:03.439Z,2.65
2023-01-17T19:41:31.244Z,3.11
2023-01-17T19:44:00.100Z,3.26
2023-01-17T19:46:27.798Z,2.95
2023-01-17T19:48:56.132Z,3.32
2023-01-17T19:51:24.918Z,3.37
2023-01-17T19:53:53.546Z,2.96
2023-01-17T19:56:23.171Z,2.91
2023-01-17T19:58:50.657Z,3.33
2023-01-17T20:01:21.556Z,3.37
2023-01-17T20:03:48.933Z,3.27
2023-01-17T20:06:19.272Z,2.75
2023-01-17T20:08:47.434Z,2.59
2023-01-17T20:11:19.864Z,3.28
2023-01-17T20:13:48.133Z,3.28
2023-01-17T20:16:17.211Z,3.16
2023-01-17T20:18:44.204Z,3.29
2023-01-17T20:21:14.294Z,3.26
2023-01-17T20:23:43.024Z,2.67
2023-01-17T20:26:19.087Z,2.66
2023-01-17T20:28:47.856Z,3.28
2023-01-17T20:31:20.490Z,2.42
2023-01-17T20:33:50.387Z,2.92
2023-01-17T20:36:19.145Z,2.38
2023-01-17T20:38:46.813Z,3.12
2023-01-17T20:41:25.523Z,2.94
2023-01-17T20:43:54.259Z,3.20
2023-01-17T20:46:23.149Z,2.19
2023-01-17T20:48:52.457Z,3.40
2023-01-17T20:51:20.581Z,2.59
2023-01-17T20:53:52.070Z,3.26
2023-01-17T20:56:19.314Z,3.22
2023-01-17T20:58:46.301Z,3.17
2023-01-17T21:01:19.167Z,2.73
2023-01-17T21:03:48.103Z,3.22
2023-01-17T21:06:15.048Z,3.40
2023-01-17T21:08:43.774Z,3.10
2023-01-17T21:11:15.217Z,2.97
2023-01-17T21:13:42.625Z,3.30
2023-01-17T21:16:12.667Z,3.09
2023-01-17T21:18:39.688Z,2.52
2023-01-17T21:21:11.141Z,3.28
2023-01-17T21:23:40.757Z,2.96
2023-01-17T21:26:12.260Z,3.45
2023-01-17T21:28:41.723Z,2.31
2023-01-17T21:31:27.333Z,3.29
2023-01-17T21:34:08.182Z,3.51
2023-01-17T21:36:38.603Z,2.58
2023-01-17T21:39:12.010Z,3.37
2023-01-17T21:41:41.741Z,2.96
2023-01-17T21:44:16.227Z,3.11
2023-01-17T21:46:43.243Z,3.00
2023-01-17T21:49:11.899Z,3.50
2023-01-17T21:51:52.646Z,3.05
2023-01-17T21:54:48.651Z,3.28
2023-01-17T21:57:50.194Z,3.23
2023-01-17T22:00:17.723Z,3.18
2023-01-17T22:02:46.013Z,3.13
2023-01-17T22:05:13.782Z,2.57
2023-01-17T22:08:00.789Z,3.16
2023-01-17T22:10:28.243Z,2.95
2023-01-17T22:12:55.114Z,2.43
2023-01-17T22:15:21.985Z,3.18
2023-01-17T22:17:49.024Z,2.94
2023-01-17T22:20:16.233Z,3.17
2023-01-17T22:22:43.008Z,2.75
2023-01-17T22:25:10.073Z,2.43
2023-01-17T22:27:36.778Z,2.90
2023-01-17T22:30:03.699Z,3.34
2023-01-17T22:32:30.521Z,2.96
2023-01-17T22:34:57.259Z,2.80
2023-01-17T22:37:23.977Z,2.83
2023-01-17T22:39:50.895Z,3.19
2023-01-17T22:42:17.700Z,2.73
2023-01-17T22:44:44.481Z,2.62
2023-01-17T22:47:12.120Z,3.39
2023-01-17T22:49:40.598Z,3.15
2023-01-17T22:52:07.415Z,3.35
2023-01-17T22:54:34.140Z,3.03
2023-01-17T22:57:00.938Z,3.30
2023-01-17T22:59:27.753Z,3.37
2023-01-17T23:01:54.444Z,3.44
2023-01-17T23:04:21.160Z,3.47
2023-01-17T23:06:48.005Z,2.92
2023-01-17T23:09:17.211Z,3.47
2023-01-17T23:11:47.299Z,3.09
2023-01-17T23:14:21.897Z,3.50
2023-01-17T23:17:15.495Z,3.53
2023-01-17T23:19:47.916Z,3.21
2023-01-17T23:22:17.637Z,3.34
2023-01-17T23:24:52.154Z,3.09
2023-01-17T23:28:11.102Z,3.34
2023-01-17T23:30:40.219Z,3.12
2023-01-17T23:33:12.399Z,3.43
2023-01-17T23:35:42.408Z,3.48
2023-01-17T23:38:33.694Z,3.81
2023-01-17T23:41:24.546Z,3.43
2023-01-17T23:43:57.274Z,3.31
2023-01-17T23:46:25.922Z,3.03
2023-01-17T23:48:53.070Z,3.30
2023-01-17T23:51:19.789Z,2.72
2023-01-17T23:53:46.822Z,2.68
2023-01-17T23:56:18.859Z,3.48
2023-01-17T23:58:45.543Z,3.32
